Flight Track Log - Related Links

Times and Time Zones

All times are in EST time to prevent confusion due to time zone crossing. See the N507DM flight status page for this flight to view local times or setup timezone preferences in your user account.

Time Position Orientation Groundspeed Altitude Reporting Facility
EST Latitude Longitude Course Direction KTS MPH feet Rate Location/Type
Wed 11:56:22 AM 30.3403 -81.5061 48° Northeast 79 91 800  Level Jacksonville Center
Wed 11:57:23 AM 30.3339 -81.4797 106° East 86 99 1,600 738 Climbing Jacksonville Center
Wed 11:58:24 AM 30.3294 -81.4583 104° East 79 91 2,300 689 Climbing Jacksonville Center
Wed 11:59:25 AM 30.3106 -81.4489 157° South 82 94 3,000 390 Climbing Jacksonville Center
Wed 12:00:27 PM 30.2853 -81.4372 158° South 99 114 3,100 49 Climbing Jacksonville Center
Wed 12:01:27 PM 30.2603 -81.4231 154° Southeast 94 108 3,100 -50 Level Jacksonville Center
Wed 12:02:28 PM 30.2350 -81.4164 167° South 92 106 3,000 -98 Descending Jacksonville Center
Wed 12:03:29 PM 30.2097 -81.4047 158° South 92 106 2,900  Descending Jacksonville Center
Wed 12:04:31 PM 30.1867 -81.3906 152° Southeast 94 108 3,000 98 Climbing Jacksonville Center
Wed 12:05:32 PM 30.1594 -81.3814 164° South 93 107 3,100 -50 Climbing Jacksonville Center
Wed 12:06:32 PM 30.1342 -81.3747 167° South 99 114 2,900 -50 Descending Jacksonville Center
Wed 12:07:33 PM 30.1069 -81.3631 160° South 98 113 3,000  Climbing Jacksonville Center
Wed 12:08:34 PM 30.0900 -81.3467 140° Southeast 98 113 2,900  Descending Jacksonville Center
Wed 12:09:35 PM 30.0897 -81.3153 91° East 93 107 3,000 49 Climbing Jacksonville Center
Wed 12:10:36 PM 30.0811 -81.2842 108° East 96 110 3,000 -51 Level Jacksonville Center
Wed 12:11:32 PM 30.0622 -81.2797 168° South 106 122 2,900 -51 Descending Jacksonville Center
Wed 12:12:33 PM 30.0372 -81.2947 207° Southwest 95 109 2,900  Level Jacksonville Center
Wed 12:13:34 PM 30.0125 -81.3069 203° Southwest 91 105 2,900  Level Jacksonville Center
Wed 12:14:34 PM 29.9875 -81.3147 195° South 95 109 2,900 47 Level Jacksonville Center
Wed 12:15:41 PM 29.9625 -81.3319 211° Southwest 98 113 3,000  Climbing Jacksonville Center
Wed 12:16:36 PM 29.9567 -81.3536 253° West 110 127 2,900  Descending Jacksonville Center
Wed 12:17:37 PM 29.9778 -81.3819 311° West 108 124 3,000  Climbing Jacksonville Center
Wed 12:18:38 PM 29.9947 -81.3936 329° Northwest 113 130 2,900 -47 Descending Jacksonville Center
Wed 12:19:45 PM 29.9797 -81.3675 124° Southeast 93 107 2,900 47 Level Jacksonville Center
Wed 12:20:46 PM 29.9647 -81.3414 124° Southeast 93 107 3,000 -103 Climbing Jacksonville Center
Wed 12:21:41 PM 29.9478 -81.3225 136° Southeast 91 105 2,700 -414 Descending Jacksonville Center
Wed 12:22:42 PM 29.9308 -81.3036 136° Southeast 86 99 2,200 -492 Descending Jacksonville Center
Wed 12:23:43 PM 29.9139 -81.2822 132° Southeast 86 99 1,700 -295 Descending Jacksonville Center
Wed 12:24:44 PM 29.8889 -81.2803 176° South 103 119 1,600 -49 Descending Jacksonville Center
Wed 12:25:45 PM 29.8825 -81.2661 117° Southeast 106 122 1,600  Level Jacksonville Center
Wed 12:26:46 PM 29.9075 -81.2728 347° North 98 113 1,600  Level Jacksonville Center

Login

Don't have an account? Register now (free) for customized features, flight alerts, and more!